Time;durP1;ratioP1;P1;durP2;ratioP2;P2;SDS_P1;SDS_P2;PMS_P1;PMS_P2;Temp;Humidity;BMP_temperature;BMP_pressure;BME280_temperature;BME280_humidity;BME280_pressure;Samples;Min_cycle;Max_cycle;Signal;HPM_P1;HPM_P2
2022/04/12 00:00:47;;;;;;;1.47;1.47;;;8.10;67.70;7.40;98018.00;;;;5101619;28;20222;-77
2022/04/12 00:03:14;;;;;;;1.20;1.20;;;8.10;67.20;7.30;98024.00;;;;5121421;28;20198;-79
2022/04/12 00:05:41;;;;;;;1.87;1.77;;;8.00;67.40;7.30;98012.00;;;;5119447;28;20197;-79
2022/04/12 00:08:11;;;;;;;0.90;0.90;;;8.00;67.70;7.10;98012.00;;;;5098439;28;20212;-78
2022/04/12 00:10:38;;;;;;;0.93;0.93;;;7.90;68.40;7.20;98031.00;;;;5121600;28;20253;-77
2022/04/12 00:13:05;;;;;;;0.93;0.93;;;7.80;69.60;7.20;98024.00;;;;5125762;28;20208;-78
2022/04/12 00:15:32;;;;;;;1.13;1.13;;;7.80;69.40;7.20;98027.00;;;;5128933;28;20221;-77
2022/04/12 00:20:44;;;;;;;1.00;1.00;;;7.80;69.40;7.10;98027.00;;;;5116732;28;20224;-79
2022/04/12 00:23:14;;;;;;;2.57;1.53;;;7.80;69.10;7.10;98031.00;;;;5123055;28;20196;-78
2022/04/12 00:25:44;;;;;;;2.93;2.10;;;7.80;69.10;7.00;98011.00;;;;5120643;28;20201;-78
2022/04/12 00:28:12;;;;;;;1.67;1.57;;;7.70;69.10;7.00;98015.00;;;;5115563;28;20616;-78
2022/04/12 00:30:38;;;;;;;1.90;1.70;;;7.70;68.90;7.00;98011.00;;;;5114722;28;20285;-77
2022/04/12 00:33:05;;;;;;;1.30;1.30;;;7.70;69.30;6.90;98015.00;;;;5096808;28;20680;-78
2022/04/12 00:35:34;;;;;;;2.03;1.50;;;7.70;68.50;7.00;98014.00;;;;5114630;28;20228;-77
2022/04/12 00:38:13;;;;;;;1.17;1.00;;;7.70;68.10;7.00;98012.00;;;;5114699;28;20217;-77
2022/04/12 00:40:40;;;;;;;2.73;2.10;;;7.70;68.00;7.00;98018.00;;;;5114573;28;20228;-77
2022/04/12 00:43:07;;;;;;;1.17;1.17;;;7.70;68.10;7.00;98024.00;;;;5114735;28;20193;-77
2022/04/12 00:45:37;;;;;;;1.03;1.03;;;7.60;67.90;7.10;98016.00;;;;5114482;28;20232;-77
2022/04/12 00:48:04;;;;;;;0.70;0.70;;;7.70;68.40;7.00;98017.00;;;;5114730;28;20239;-78
2022/04/12 00:50:31;;;;;;;1.43;1.43;;;7.70;67.90;6.90;98025.00;;;;5114415;28;20296;-77
2022/04/12 00:53:00;;;;;;;0.97;0.97;;;7.70;67.50;6.80;98016.00;;;;5113658;28;20296;-78
2022/04/12 00:55:30;;;;;;;0.97;0.97;;;7.60;67.70;6.90;98014.00;;;;5096434;28;20205;-77
2022/04/12 00:57:58;;;;;;;1.10;1.10;;;7.60;67.70;7.00;98018.00;;;;5096526;28;20202;-78
2022/04/12 01:00:26;;;;;;;1.00;1.00;;;7.60;67.60;6.90;98016.00;;;;5096496;28;20230;-78
2022/04/12 01:02:53;;;;;;;1.00;1.00;;;7.60;67.90;6.80;98011.00;;;;5114410;28;20202;-78
2022/04/12 01:05:20;;;;;;;0.70;0.70;;;7.50;68.20;6.90;98011.00;;;;5114124;28;20208;-79
2022/04/12 01:07:47;;;;;;;0.70;0.70;;;7.50;68.20;6.80;98011.00;;;;5114249;28;20235;-77
2022/04/12 01:10:15;;;;;;;0.80;0.80;;;7.50;67.90;6.70;98006.00;;;;5114390;28;20188;-79
2022/04/12 01:12:44;;;;;;;1.07;1.07;;;7.50;68.00;6.80;98001.00;;;;5114266;28;20194;-77
2022/04/12 01:15:18;;;;;;;0.93;0.93;;;7.50;69.00;6.70;98007.00;;;;5114454;28;20209;-77
2022/04/12 01:17:47;;;;;;;1.30;1.30;;;7.50;67.90;6.70;97997.00;;;;5096567;28;20295;-77
2022/04/12 01:20:19;;;;;;;1.27;1.27;;;7.40;68.10;6.70;97997.00;;;;5114059;28;20687;-78
2022/04/12 01:22:55;;;;;;;1.20;1.20;;;7.40;68.40;6.70;97995.00;;;;5114097;28;20683;-77
2022/04/12 01:25:24;;;;;;;0.73;0.73;;;7.40;68.20;6.60;98000.00;;;;5114368;28;20219;-77
2022/04/12 01:27:51;;;;;;;1.23;1.13;;;7.30;68.00;6.60;97989.00;;;;5096279;28;20224;-79
2022/04/12 01:30:18;;;;;;;1.00;1.00;;;7.30;68.60;6.60;97997.00;;;;5114104;28;20198;-78
2022/04/12 01:32:46;;;;;;;1.37;1.10;;;7.30;68.50;6.40;97990.00;;;;5096085;28;20277;-78
2022/04/12 01:35:13;;;;;;;1.53;1.43;;;7.30;68.20;6.40;97977.00;;;;5114237;28;20638;-77
2022/04/12 01:37:40;;;;;;;2.53;2.03;;;7.10;68.80;6.50;97991.00;;;;5097738;28;20260;-77
2022/04/12 01:40:09;;;;;;;1.40;1.27;;;7.20;68.80;6.50;98003.00;;;;5118258;28;20218;-78
2022/04/12 01:42:40;;;;;;;0.60;0.60;;;7.20;68.50;6.40;98008.00;;;;5118089;28;20229;-77
2022/04/12 01:45:08;;;;;;;0.73;0.73;;;7.20;68.70;6.60;98005.00;;;;5117573;28;20273;-78
2022/04/12 01:47:36;;;;;;;0.93;0.93;;;7.20;69.10;6.50;98002.00;;;;5099637;28;20625;-78
2022/04/12 01:50:05;;;;;;;1.20;1.00;;;7.10;68.80;6.40;97994.00;;;;5117482;28;20283;-78
2022/04/12 01:52:35;;;;;;;1.80;1.70;;;7.10;69.50;6.30;97994.00;;;;5117106;28;20258;-77
2022/04/12 01:55:03;;;;;;;1.13;1.13;;;7.00;69.40;6.30;97983.00;;;;5117472;28;20208;-77
2022/04/12 01:57:30;;;;;;;1.00;1.00;;;7.00;70.10;6.20;97989.00;;;;5117698;28;20208;-77
2022/04/12 01:59:57;;;;;;;1.37;1.13;;;7.00;70.40;6.20;97995.00;;;;5118339;28;20298;-77
2022/04/12 02:02:24;;;;;;;1.70;1.53;;;6.90;71.10;6.20;97994.00;;;;5103424;28;20263;-74
2022/04/12 02:04:50;;;;;;;1.70;1.60;;;6.90;70.90;6.20;97996.00;;;;5102626;28;20196;-78
2022/04/12 02:07:17;;;;;;;7.70;1.40;;;6.90;70.80;6.20;97996.00;;;;5120535;28;20214;-78
2022/04/12 02:09:44;;;;;;;0.90;0.90;;;7.00;70.40;6.30;97992.00;;;;5105091;28;20203;-78
2022/04/12 02:12:11;;;;;;;1.13;1.13;;;7.00;70.30;6.30;97994.00;;;;5121691;28;20221;-78
2022/04/12 02:14:40;;;;;;;0.93;0.93;;;7.00;70.20;6.30;97992.00;;;;5099254;28;20196;-77
2022/04/12 02:17:08;;;;;;;1.47;1.37;;;7.00;70.10;6.30;97972.00;;;;5117024;28;20206;-78
2022/04/12 02:19:34;;;;;;;1.87;1.60;;;7.00;69.90;6.20;97993.00;;;;5098773;28;20676;-78
2022/04/12 02:22:01;;;;;;;1.03;1.03;;;6.90;71.20;6.10;97978.00;;;;5116920;28;20247;-78
2022/04/12 02:24:27;;;;;;;1.40;1.30;;;6.90;70.90;6.20;97987.00;;;;5098827;28;20210;-78
2022/04/12 02:26:54;;;;;;;0.93;0.93;;;6.80;71.60;6.10;97978.00;;;;5116814;28;20597;-76
2022/04/12 02:29:21;;;;;;;1.43;1.43;;;6.90;71.60;6.10;97983.00;;;;5116939;28;20201;-78
2022/04/12 02:31:47;;;;;;;3.27;2.37;;;6.80;72.20;6.10;97984.00;;;;5099165;28;20194;-78
2022/04/12 02:34:17;;;;;;;0.90;0.90;;;6.80;72.50;6.10;97985.00;;;;5116700;28;20314;-77
2022/04/12 02:36:43;;;;;;;0.77;0.77;;;6.80;73.30;6.20;97990.00;;;;5098640;28;20198;-78
2022/04/12 02:39:10;;;;;;;1.57;1.50;;;6.90;73.40;6.10;97982.00;;;;5098659;28;20242;-77
2022/04/12 02:41:36;;;;;;;0.97;0.97;;;6.80;72.60;6.00;97982.00;;;;5116593;28;20224;-78
2022/04/12 02:44:03;;;;;;;1.17;1.07;;;6.80;72.00;6.00;97975.00;;;;5116467;28;20259;-78
2022/04/12 02:46:30;;;;;;;2.40;2.20;;;6.70;71.90;6.10;97975.00;;;;5116389;28;20219;-78
2022/04/12 02:48:56;;;;;;;0.70;0.70;;;6.80;71.60;6.10;97982.00;;;;5115071;28;20190;-77
2022/04/12 02:51:24;;;;;;;1.33;1.33;;;6.70;71.50;6.20;97972.00;;;;5116398;28;20290;-77
2022/04/12 02:53:50;;;;;;;0.93;0.93;;;6.80;71.30;6.10;97950.00;;;;5116307;28;20274;-77
2022/04/12 02:56:17;;;;;;;1.10;1.10;;;6.70;71.50;6.00;97966.00;;;;5116475;28;20218;-78
2022/04/12 02:58:43;;;;;;;2.77;1.07;;;6.70;70.80;5.80;97964.00;;;;5116231;28;20262;-77
2022/04/12 03:01:10;;;;;;;3.27;1.93;;;6.60;71.70;6.00;97959.00;;;;5116240;28;20589;-78
2022/04/12 03:03:37;;;;;;;0.90;0.90;;;6.60;71.10;6.00;97969.00;;;;5116429;28;20211;-78
2022/04/12 03:06:05;;;;;;;0.90;0.90;;;6.60;71.00;5.80;97962.00;;;;5098418;28;20218;-78
2022/04/12 03:08:32;;;;;;;1.37;1.37;;;6.60;71.30;5.90;97971.00;;;;5116125;28;20527;-76
2022/04/12 03:10:59;;;;;;;0.87;0.87;;;6.60;71.80;5.90;97963.00;;;;5116016;28;20290;-76
2022/04/12 03:13:28;;;;;;;1.00;1.00;;;6.60;72.00;5.90;97959.00;;;;5097925;28;20258;-78
2022/04/12 03:15:57;;;;;;;1.67;1.57;;;6.60;72.50;5.90;97962.00;;;;5115943;28;20243;-77
2022/04/12 03:18:25;;;;;;;1.00;1.00;;;6.60;72.40;5.90;97963.00;;;;5098378;28;20613;-78
2022/04/12 03:20:52;;;;;;;1.37;1.27;;;6.60;72.70;5.90;97953.00;;;;5115987;28;20300;-77
2022/04/12 03:23:21;;;;;;;0.90;0.90;;;6.60;72.90;5.90;97964.00;;;;5115845;28;20527;-77
2022/04/12 03:25:50;;;;;;;0.77;0.77;;;6.60;73.90;6.10;97958.00;;;;5115718;28;20222;-78
2022/04/12 03:28:17;;;;;;;0.90;0.90;;;6.70;73.60;5.90;97953.00;;;;5116076;28;20233;-78
2022/04/12 03:30:44;;;;;;;0.90;0.90;;;6.60;72.70;5.90;97956.00;;;;5115862;28;20202;-78
2022/04/12 03:33:11;;;;;;;2.00;1.83;;;6.60;73.00;5.90;97950.00;;;;5098025;28;20316;-78
2022/04/12 03:35:37;;;;;;;1.13;1.13;;;6.60;73.00;5.90;97956.00;;;;5115959;28;20207;-78
2022/04/12 03:38:04;;;;;;;1.17;1.17;;;6.60;73.30;5.90;97959.00;;;;5097876;28;20577;-78
2022/04/12 03:40:32;;;;;;;1.67;1.57;;;6.60;73.00;5.90;97958.00;;;;5097834;28;20262;-77
2022/04/12 03:43:00;;;;;;;1.63;1.57;;;6.60;73.40;5.90;97958.00;;;;5115671;28;20226;-79
2022/04/12 03:45:27;;;;;;;1.83;1.73;;;6.60;74.30;5.90;97965.00;;;;5080856;28;20204;-78
2022/04/12 03:47:56;;;;;;;1.20;1.20;;;6.60;75.00;5.90;97973.00;;;;5115939;28;20194;-78
2022/04/12 03:50:24;;;;;;;0.80;0.80;;;6.60;75.10;5.90;97966.00;;;;5116068;28;20198;-77
2022/04/12 03:52:51;;;;;;;2.47;1.60;;;;;5.90;97958.00;;;;5115781;28;20217;-77
2022/04/12 03:55:30;;;;;;;1.10;1.10;;;6.60;73.90;5.80;97954.00;;;;5116085;28;20199;-78
2022/04/12 03:58:01;;;;;;;1.50;1.40;;;6.60;74.60;5.90;97947.00;;;;5121214;28;20214;-78
2022/04/12 04:00:28;;;;;;;1.30;1.20;;;6.60;74.40;5.90;97956.00;;;;5121703;28;20299;-78
2022/04/12 04:02:56;;;;;;;1.57;1.47;;;6.70;74.90;6.00;97955.00;;;;5119703;28;20248;-78
2022/04/12 04:05:22;;;;;;;1.50;1.40;;;6.70;74.80;6.00;97961.00;;;;5119534;28;20347;-78
2022/04/12 04:07:49;;;;;;;2.53;1.23;;;6.70;74.70;6.00;97951.00;;;;5118319;28;20218;-78
2022/04/12 04:10:18;;;;;;;1.63;1.53;;;6.80;74.50;6.10;97962.00;;;;5125919;28;20205;-77
2022/04/12 04:12:48;;;;;;;1.47;1.37;;;6.80;73.90;6.20;97961.00;;;;5104630;28;20227;-79
2022/04/12 04:15:15;;;;;;;1.23;1.23;;;6.90;73.60;6.20;97957.00;;;;5117168;28;20191;-77
2022/04/12 04:17:43;;;;;;;1.60;1.50;;;6.90;73.20;6.20;97960.00;;;;5108498;28;20198;-79
2022/04/12 04:20:12;;;;;;;1.07;1.07;;;6.90;72.90;6.20;97951.00;;;;5123875;28;20280;-78
2022/04/12 04:22:40;;;;;;;1.00;1.00;;;6.90;72.80;6.20;97955.00;;;;5118297;28;20278;-78
2022/04/12 04:25:08;;;;;;;1.80;1.70;;;6.90;72.80;6.20;97958.00;;;;5115942;28;20255;-78
2022/04/12 04:27:35;;;;;;;1.07;0.97;;;6.90;72.40;6.10;97967.00;;;;5116023;28;20209;-79
2022/04/12 04:30:03;;;;;;;0.87;0.87;;;6.90;72.30;6.20;97958.00;;;;5097147;28;20288;-78
2022/04/12 04:32:31;;;;;;;1.77;1.67;;;6.90;72.50;6.10;97953.00;;;;5096998;28;20308;-78
2022/04/12 04:34:57;;;;;;;2.30;1.80;;;6.80;73.00;6.10;97962.00;;;;5096783;28;20658;-78
2022/04/12 04:37:24;;;;;;;1.30;1.27;;;6.80;71.70;6.10;97956.00;;;;5114661;28;20304;-77
2022/04/12 04:39:51;;;;;;;0.90;0.90;;;6.80;71.80;6.10;97958.00;;;;5114693;28;20251;-78
2022/04/12 04:42:20;;;;;;;0.83;0.83;;;6.90;71.90;6.10;97956.00;;;;5096501;28;20250;-77
2022/04/12 04:44:47;;;;;;;1.47;1.37;;;6.90;71.90;6.20;97948.00;;;;5114953;28;20346;-77
2022/04/12 04:47:13;;;;;;;1.70;1.60;;;6.80;71.70;6.10;97952.00;;;;5114653;28;20212;-78
2022/04/12 04:49:40;;;;;;;0.93;0.93;;;6.90;71.70;6.20;97948.00;;;;5114415;28;20198;-78
2022/04/12 04:52:07;;;;;;;0.77;0.77;;;6.90;71.70;6.20;97956.00;;;;5114381;28;20227;-78
2022/04/12 04:54:34;;;;;;;2.17;1.27;;;6.90;71.70;6.20;97953.00;;;;5114629;28;20212;-78
2022/04/12 04:57:04;;;;;;;0.60;0.60;;;6.90;71.40;6.30;97956.00;;;;5114448;28;20194;-77
2022/04/12 04:59:30;;;;;;;5.50;1.63;;;7.00;71.20;6.30;97947.00;;;;5114319;28;20211;-77
2022/04/12 05:01:59;;;;;;;1.00;1.00;;;6.90;71.30;6.30;97949.00;;;;5114268;28;20212;-77
2022/04/12 05:04:28;;;;;;;1.37;1.27;;;6.90;71.60;6.20;97953.00;;;;5114346;28;20197;-78
2022/04/12 05:06:55;;;;;;;1.70;1.60;;;6.90;71.70;6.20;97954.00;;;;5114136;28;20651;-78
2022/04/12 05:09:21;;;;;;;0.70;0.70;;;6.90;71.90;6.10;97957.00;;;;5096314;28;20194;-77
2022/04/12 05:11:51;;;;;;;1.60;1.50;;;6.80;72.00;6.10;97946.00;;;;5113345;28;20199;-78
2022/04/12 05:14:19;;;;;;;1.67;1.57;;;6.90;72.10;6.20;97952.00;;;;5114307;28;20199;-78
2022/04/12 05:16:46;;;;;;;1.53;1.43;;;6.90;72.20;6.30;97957.00;;;;5114064;28;20199;-77
2022/04/12 05:19:13;;;;;;;3.67;1.60;;;6.90;72.50;6.30;97950.00;;;;5114051;28;20226;-78
2022/04/12 05:21:39;;;;;;;2.23;2.13;;;7.00;72.00;6.30;97956.00;;;;5096004;28;20335;-78
2022/04/12 05:24:07;;;;;;;1.23;1.20;;;7.00;71.80;6.40;97956.00;;;;5114052;28;20191;-78
2022/04/12 05:26:33;;;;;;;1.40;1.30;;;7.10;71.70;6.50;97959.00;;;;5097706;28;20312;-78
2022/04/12 05:29:00;;;;;;;2.67;1.97;;;7.10;71.20;6.50;97970.00;;;;5114630;28;20231;-79
2022/04/12 05:31:28;;;;;;;1.23;1.23;;;7.20;71.00;6.50;97961.00;;;;5114748;28;20196;-78
2022/04/12 05:33:57;;;;;;;1.40;1.30;;;7.20;71.40;6.50;97960.00;;;;5114143;28;20338;-77
2022/04/12 05:36:23;;;;;;;2.23;2.13;;;7.20;70.30;6.50;97963.00;;;;5114120;28;20216;-77
2022/04/12 05:38:53;;;;;;;1.53;1.47;;;7.20;70.20;6.60;97971.00;;;;5096877;28;20587;-77
2022/04/12 05:41:20;;;;;;;1.03;1.03;;;7.30;70.50;6.60;97968.00;;;;5095899;28;20217;-75
2022/04/12 05:43:46;;;;;;;1.10;1.07;;;7.30;70.70;6.70;97977.00;;;;5113765;28;20578;-77
2022/04/12 05:46:13;;;;;;;1.07;1.07;;;7.40;70.50;6.80;97972.00;;;;5113727;28;20224;-77
2022/04/12 05:48:40;;;;;;;1.50;1.40;;;7.40;70.20;6.90;97942.00;;;;5113840;28;20202;-77
2022/04/12 05:51:06;;;;;;;2.17;2.07;;;7.50;70.30;6.80;97979.00;;;;5113566;28;20286;-77
2022/04/12 05:53:34;;;;;;;1.83;1.73;;;7.50;69.00;6.60;97983.00;;;;5113685;28;20219;-77
2022/04/12 05:56:00;;;;;;;1.63;1.53;;;7.40;67.80;6.70;97973.00;;;;5114035;28;20193;-77
2022/04/12 05:58:30;;;;;;;8.43;2.33;;;7.40;67.40;6.60;97989.00;;;;5113527;28;20232;-77
2022/04/12 06:00:56;;;;;;;1.27;1.20;;;7.30;67.00;6.70;97991.00;;;;5113713;28;20232;-76
2022/04/12 06:03:23;;;;;;;1.27;1.17;;;7.40;67.20;6.70;97994.00;;;;5113623;28;20262;-77
2022/04/12 06:05:49;;;;;;;1.30;1.30;;;7.40;66.20;6.70;97991.00;;;;5113427;28;20263;-77
2022/04/12 06:08:16;;;;;;;4.50;2.17;;;7.30;66.90;6.80;97986.00;;;;5095914;28;20265;-78
2022/04/12 06:10:42;;;;;;;1.27;1.27;;;7.40;67.70;6.90;97979.00;;;;5095985;28;20370;-78
2022/04/12 06:13:09;;;;;;;0.73;0.73;;;7.50;68.10;7.00;97969.00;;;;5115547;28;20240;-78
2022/04/12 06:15:36;;;;;;;1.40;1.30;;;7.60;67.90;7.10;97981.00;;;;5116646;28;20231;-80
2022/04/12 06:18:03;;;;;;;1.87;1.77;;;7.70;68.00;7.20;97975.00;;;;5116969;28;20280;-77
2022/04/12 06:20:29;;;;;;;1.50;1.40;;;7.80;68.50;7.20;97976.00;;;;5128518;28;20633;-79
2022/04/12 06:22:56;;;;;;;2.10;1.43;;;7.90;69.60;7.40;97975.00;;;;5109410;28;20226;-79
2022/04/12 06:25:22;;;;;;;1.17;1.17;;;8.00;69.30;7.60;97964.00;;;;5122019;28;20222;-78
2022/04/12 06:27:51;;;;;;;1.57;1.13;;;8.20;69.20;7.80;97975.00;;;;5117769;28;20599;-79
2022/04/12 06:30:20;;;;;;;1.23;1.23;;;8.30;69.10;7.80;97968.00;;;;5117007;28;20660;-78
2022/04/12 06:32:48;;;;;;;1.20;1.20;;;8.40;68.60;7.90;97970.00;;;;5116833;28;20197;-77
2022/04/12 06:35:15;;;;;;;1.73;1.63;;;8.50;68.20;8.10;97975.00;;;;5117234;28;20217;-78
2022/04/12 06:37:46;;;;;;;1.77;1.67;;;8.70;67.30;8.20;97981.00;;;;5117034;28;20222;-78
2022/04/12 06:40:17;;;;;;;1.70;1.60;;;8.80;65.70;8.40;97974.00;;;;5117062;28;20231;-76
2022/04/12 06:42:43;;;;;;;0.80;0.80;;;9.00;64.90;8.60;97982.00;;;;5116763;28;20224;-78
2022/04/12 06:45:11;;;;;;;0.80;0.80;;;9.20;63.20;8.70;97978.00;;;;5116603;28;20256;-78
2022/04/12 06:47:38;;;;;;;1.00;1.00;;;9.30;62.80;8.80;97975.00;;;;5116847;28;20202;-78
2022/04/12 06:50:06;;;;;;;2.17;2.07;;;9.50;62.60;9.00;97981.00;;;;5098811;28;20285;-78
2022/04/12 06:52:34;;;;;;;0.80;0.80;;;9.60;62.90;9.10;97968.00;;;;5116579;28;20217;-79
2022/04/12 06:55:01;;;;;;;2.00;0.93;;;9.60;63.40;9.20;97975.00;;;;5116902;28;20673;-78
2022/04/12 06:57:31;;;;;;;0.83;0.83;;;9.80;62.70;9.30;97957.00;;;;5117035;28;20300;-79
2022/04/12 06:59:57;;;;;;;1.10;1.10;;;10.00;62.70;9.60;97958.00;;;;5098803;28;20267;-79
2022/04/12 07:02:24;;;;;;;0.97;0.97;;;10.10;58.90;9.90;97959.00;;;;5116272;28;20590;-78
2022/04/12 07:04:50;;;;;;;1.00;1.00;;;10.30;55.70;9.90;97956.00;;;;5116522;28;20274;-79
2022/04/12 07:07:18;;;;;;;1.60;1.33;;;10.40;55.20;10.00;97960.00;;;;5116569;28;20198;-78
2022/04/12 07:09:44;;;;;;;0.87;0.87;;;10.50;54.80;10.30;97959.00;;;;5098155;28;20210;-77
2022/04/12 07:12:11;;;;;;;1.03;1.03;;;10.80;54.40;10.40;97961.00;;;;5116084;28;20205;-78
2022/04/12 07:14:37;;;;;;;3.30;1.10;;;10.90;53.40;10.50;97959.00;;;;5116389;28;20325;-78
2022/04/12 07:17:05;;;;;;;0.87;0.83;;;10.90;52.80;10.60;97960.00;;;;5098783;28;20522;-78
2022/04/12 07:19:32;;;;;;;0.90;0.90;;;11.10;51.30;10.60;97965.00;;;;5115991;28;20202;-75
2022/04/12 07:21:58;;;;;;;1.10;1.10;;;11.20;49.70;10.70;97963.00;;;;5115927;28;20222;-78
2022/04/12 07:24:26;;;;;;;1.10;1.10;;;11.30;49.40;10.90;97982.00;;;;5116129;28;20278;-79
2022/04/12 07:26:54;;;;;;;1.40;1.30;;;11.40;48.60;11.00;97977.00;;;;5116181;28;20280;-81
2022/04/12 07:29:21;;;;;;;1.07;1.07;;;11.50;48.40;11.10;97979.00;;;;5116034;28;20194;-80
2022/04/12 07:31:50;;;;;;;0.57;0.57;;;11.60;47.80;11.10;97980.00;;;;5116096;28;20253;-81
2022/04/12 07:34:16;;;;;;;0.93;0.93;;;11.70;48.00;11.30;97985.00;;;;5115438;28;20277;-80
2022/04/12 07:36:49;;;;;;;2.40;2.20;;;11.80;48.30;11.30;97977.00;;;;5098273;28;20265;-79
2022/04/12 07:39:16;;;;;;;1.13;1.03;;;11.80;48.60;11.40;97980.00;;;;5116439;28;20194;-77
2022/04/12 07:41:45;;;;;;;0.70;0.70;;;11.90;47.90;11.50;97986.00;;;;5117165;28;20292;-80
2022/04/12 07:44:15;;;;;;;1.13;1.13;;;12.00;47.10;11.60;97977.00;;;;5115868;28;20213;-77
2022/04/12 07:46:42;;;;;;;2.83;1.53;;;12.10;46.80;11.70;97979.00;;;;5116079;28;20198;-78
2022/04/12 07:49:09;;;;;;;1.77;1.10;;;12.20;46.50;11.90;97972.00;;;;5115797;28;20283;-78
2022/04/12 07:51:38;;;;;;;1.77;1.67;;;12.40;46.80;12.10;97973.00;;;;5115884;28;20194;-78
2022/04/12 07:54:06;;;;;;;1.43;1.40;;;12.60;46.80;12.20;97972.00;;;;5097598;28;20198;-77
2022/04/12 07:56:33;;;;;;;1.07;1.07;;;12.70;47.40;12.20;97979.00;;;;5115559;28;20228;-78
2022/04/12 07:59:01;;;;;;;1.37;1.37;;;12.80;47.30;12.40;97951.00;;;;5115506;28;20214;-78
2022/04/12 08:01:28;;;;;;;1.27;1.17;;;12.90;47.60;12.60;97971.00;;;;5115419;28;20267;-78
2022/04/12 08:03:54;;;;;;;1.97;1.37;;;13.10;45.90;12.70;97975.00;;;;5097511;28;20202;-77
2022/04/12 08:06:21;;;;;;;0.90;0.90;;;13.20;47.20;12.70;97980.00;;;;5115510;28;20194;-76
2022/04/12 08:08:48;;;;;;;1.10;1.10;;;13.30;48.10;12.90;97985.00;;;;5115542;28;20305;-77
2022/04/12 08:11:15;;;;;;;2.03;1.93;;;13.40;46.80;13.10;97985.00;;;;5115938;28;20254;-78
2022/04/12 08:13:42;;;;;;;0.80;0.80;;;13.50;45.30;13.20;97977.00;;;;5118629;28;20333;-80
2022/04/12 08:16:09;;;;;;;1.80;1.70;;;13.70;44.40;13.40;97985.00;;;;5123141;28;20218;-79
2022/04/12 08:18:36;;;;;;;0.77;0.77;;;13.80;45.00;13.50;97982.00;;;;5120735;28;20718;-76
2022/04/12 08:21:03;;;;;;;0.83;0.83;;;14.00;41.80;13.60;97971.00;;;;5118283;28;20203;-77
2022/04/12 08:23:29;;;;;;;1.03;1.03;;;14.10;41.70;13.70;97969.00;;;;5098626;28;20226;-77
2022/04/12 08:25:58;;;;;;;2.17;1.27;;;14.20;41.60;13.80;97965.00;;;;5123994;28;20198;-79
2022/04/12 08:28:25;;;;;;;0.70;0.70;;;14.30;42.70;14.10;97974.00;;;;5126590;28;20672;-78
2022/04/12 08:30:52;;;;;;;2.57;2.37;;;14.50;42.60;14.10;97971.00;;;;5131788;28;20265;-77
2022/04/12 08:33:19;;;;;;;0.97;0.97;;;14.60;42.80;14.40;97971.00;;;;5100629;28;20293;-79
2022/04/12 08:35:45;;;;;;;0.80;0.80;;;14.80;42.70;14.60;97966.00;;;;5097811;28;20256;-79
2022/04/12 08:38:12;;;;;;;0.80;0.80;;;15.00;42.90;14.70;97967.00;;;;5115778;28;20193;-80
2022/04/12 08:40:40;;;;;;;0.83;0.83;;;15.20;43.00;14.80;97964.00;;;;5098006;28;20197;-80
2022/04/12 08:43:08;;;;;;;6.60;2.00;;;15.30;40.80;14.90;97956.00;;;;5115908;28;20222;-78
2022/04/12 08:45:37;;;;;;;1.20;1.20;;;15.40;41.50;15.00;97958.00;;;;5114625;28;20186;-80
2022/04/12 08:48:06;;;;;;;1.73;1.20;;;15.40;41.90;15.20;97964.00;;;;5114668;28;20671;-80
2022/04/12 08:50:35;;;;;;;1.37;1.33;;;15.60;42.00;15.20;97956.00;;;;5096840;28;20205;-80
2022/04/12 08:53:02;;;;;;;0.80;0.80;;;15.70;42.00;15.20;97960.00;;;;5114612;28;20210;-77
2022/04/12 08:55:29;;;;;;;1.17;1.17;;;15.70;40.90;15.20;97956.00;;;;5096650;28;20296;-78
2022/04/12 08:57:57;;;;;;;0.80;0.80;;;15.70;39.80;15.20;97961.00;;;;5114446;28;20277;-79
2022/04/12 09:00:24;;;;;;;1.03;1.03;;;15.80;40.10;15.20;97964.00;;;;5114725;28;20254;-79
2022/04/12 09:02:53;;;;;;;1.17;1.13;;;15.70;40.50;15.20;97962.00;;;;5096541;28;20218;-77
2022/04/12 09:05:21;;;;;;;0.80;0.80;;;15.80;40.80;15.30;97962.00;;;;5097550;28;20201;-79
2022/04/12 09:07:49;;;;;;;0.80;0.80;;;15.80;40.90;15.40;97960.00;;;;5115216;28;20304;-79
2022/04/12 09:10:16;;;;;;;1.43;1.33;;;15.90;40.90;15.40;97969.00;;;;5115040;28;20212;-79
2022/04/12 09:12:43;;;;;;;1.03;1.03;;;15.90;40.60;15.60;97961.00;;;;5115023;28;20194;-80
2022/04/12 09:15:12;;;;;;;1.90;1.53;;;16.10;41.00;15.70;97963.00;;;;5114996;28;20391;-78
2022/04/12 09:17:41;;;;;;;1.53;1.43;;;16.20;40.70;15.90;97951.00;;;;5114483;28;20248;-78
2022/04/12 09:20:13;;;;;;;0.70;0.70;;;16.30;39.90;16.10;97964.00;;;;5114553;28;20302;-77
2022/04/12 09:22:43;;;;;;;1.50;1.40;;;16.50;39.30;16.20;97965.00;;;;5096626;28;20223;-78
2022/04/12 09:25:13;;;;;;;1.10;1.00;;;16.70;38.80;16.40;97957.00;;;;5114832;28;20214;-78
2022/04/12 09:27:44;;;;;;;2.10;1.20;;;16.80;39.30;16.60;97957.00;;;;5098381;28;20226;-78
2022/04/12 09:30:13;;;;;;;1.67;1.57;;;16.90;38.20;16.60;97965.00;;;;5103711;28;20578;-79
2022/04/12 09:32:45;;;;;;;2.20;1.40;;;17.00;36.60;16.60;97954.00;;;;5121467;28;20241;-79
2022/04/12 09:35:11;;;;;;;2.73;1.53;;;17.10;36.80;16.90;97954.00;;;;5115358;28;20221;-79
2022/04/12 09:37:41;;;;;;;0.90;0.90;;;17.20;36.30;16.90;97959.00;;;;5122244;28;20194;-79
2022/04/12 09:40:12;;;;;;;0.67;0.67;;;17.30;36.40;17.00;97938.00;;;;5104906;28;20237;-78
2022/04/12 09:42:48;;;;;;;1.13;1.13;;;17.40;35.60;17.20;97948.00;;;;5123481;28;20209;-79
2022/04/12 09:45:18;;;;;;;3.50;1.67;;;17.60;35.50;17.30;97949.00;;;;5115852;28;20202;-78
2022/04/12 09:47:47;;;;;;;0.80;0.80;;;17.70;36.10;17.50;97942.00;;;;5115393;28;20221;-77
2022/04/12 09:50:14;;;;;;;0.70;0.70;;;17.80;35.00;17.60;97936.00;;;;5114409;28;20190;-78
2022/04/12 09:52:53;;;;;;;0.53;0.53;;;18.00;34.10;17.80;97936.00;;;;5113992;28;20209;-76
2022/04/12 09:55:38;;;;;;;2.00;0.70;;;18.20;34.40;17.90;97933.00;;;;5113883;28;20205;-79
2022/04/12 09:58:09;;;;;;;0.80;0.80;;;18.40;34.10;18.00;97925.00;;;;5114783;28;20218;-78
2022/04/12 10:00:39;;;;;;;0.50;0.50;;;18.40;33.80;18.20;97916.00;;;;5117208;28;20232;-77
2022/04/12 10:03:10;;;;;;;1.00;1.00;;;18.60;33.40;18.30;97923.00;;;;5117029;28;20309;-77
2022/04/12 10:05:37;;;;;;;0.80;0.80;;;18.70;34.20;18.40;97929.00;;;;5117870;28;20194;-77
2022/04/12 10:08:06;;;;;;;5.00;1.00;;;18.90;34.60;18.60;97910.00;;;;5122733;28;20198;-78
2022/04/12 10:10:32;;;;;;;4.43;1.13;;;18.90;33.80;18.60;97927.00;;;;5124365;28;20284;-77
2022/04/12 10:13:00;;;;;;;0.50;0.50;;;19.00;32.20;18.80;97931.00;;;;5120534;28;20312;-76
2022/04/12 10:15:29;;;;;;;1.40;1.30;;;19.20;32.70;18.90;97917.00;;;;5118609;28;20218;-78
2022/04/12 10:17:56;;;;;;;1.33;1.23;;;19.30;32.30;19.00;97931.00;;;;5117629;28;20304;-77
2022/04/12 10:20:23;;;;;;;0.70;0.70;;;19.30;31.80;18.90;97933.00;;;;5117091;28;20222;-77
2022/04/12 10:22:51;;;;;;;0.50;0.50;;;19.40;32.00;19.10;97929.00;;;;5116984;28;20232;-78
2022/04/12 10:25:21;;;;;;;0.70;0.70;;;19.50;28.80;19.20;97926.00;;;;5116898;28;20275;-78
2022/04/12 10:27:50;;;;;;;0.60;0.60;;;19.60;29.00;19.30;97893.00;;;;5116832;28;20263;-79
2022/04/12 10:30:26;;;;;;;0.93;0.93;;;19.70;29.20;19.40;97927.00;;;;5116995;28;20276;-79
2022/04/12 10:33:01;;;;;;;1.63;1.53;;;19.80;29.10;19.50;97925.00;;;;5098785;28;20362;-79
2022/04/12 10:35:28;;;;;;;0.67;0.67;;;20.00;29.90;19.80;97918.00;;;;5116702;28;20232;-78
2022/04/12 10:37:57;;;;;;;0.53;0.53;;;20.20;29.00;20.00;97921.00;;;;5116802;28;20206;-78
2022/04/12 10:40:26;;;;;;;0.87;0.87;;;20.30;28.50;20.20;97882.00;;;;5116699;28;20201;-77
2022/04/12 10:42:55;;;;;;;0.83;0.83;;;20.50;29.40;20.20;97907.00;;;;5116533;28;20226;-78
2022/04/12 10:45:31;;;;;;;1.33;1.27;;;20.70;31.60;20.40;97913.00;;;;5098529;28;20225;-78
2022/04/12 10:48:00;;;;;;;1.17;1.17;;;20.80;30.00;20.50;97903.00;;;;5120678;28;20232;-78
2022/04/12 10:50:41;;;;;;;0.53;0.53;;;20.90;27.90;20.70;97898.00;;;;5115717;28;20606;-79
2022/04/12 10:53:10;;;;;;;1.27;1.17;;;21.10;29.20;21.00;97900.00;;;;5098505;28;20614;-80
2022/04/12 10:55:41;;;;;;;0.70;0.70;;;21.30;27.60;21.20;97885.00;;;;5121492;28;20202;-78
2022/04/12 10:58:13;;;;;;;0.83;0.83;;;21.50;26.80;21.30;97885.00;;;;5098277;28;20226;-76
2022/04/12 11:00:42;;;;;;;1.43;1.33;;;21.60;27.60;21.50;97888.00;;;;5116185;28;20281;-77
2022/04/12 11:03:09;;;;;;;1.07;0.77;;;21.90;26.10;21.50;97877.00;;;;5116055;28;20240;-77
2022/04/12 11:05:55;;;;;;;0.43;0.43;;;22.00;25.90;21.70;97880.00;;;;5116185;28;20304;-78
2022/04/12 11:08:47;;;;;;;0.70;0.70;;;22.00;24.30;22.00;97874.00;;;;5116109;28;20222;-78
2022/04/12 11:11:28;;;;;;;0.50;0.50;;;22.20;22.40;22.00;97871.00;;;;5115180;28;20217;-76